sensor_id;sensor_type;location;lat;lon;timestamp;P1;durP1;ratioP1;P2;durP2;ratioP2
10491;SDS011;5293;51.464;-2.566;2022-12-24T00:01:10;20.13;;;4.43;;
10491;SDS011;5293;51.464;-2.566;2022-12-24T00:03:36;16.10;;;4.37;;
10491;SDS011;5293;51.464;-2.566;2022-12-24T00:06:05;19.30;;;4.20;;
10491;SDS011;5293;51.464;-2.566;2022-12-24T00:08:32;13.50;;;3.53;;
10491;SDS011;5293;51.464;-2.566;2022-12-24T00:10:58;17.03;;;4.03;;
10491;SDS011;5293;51.464;-2.566;2022-12-24T00:13:24;24.90;;;4.10;;
10491;SDS011;5293;51.464;-2.566;2022-12-24T00:15:49;18.23;;;3.33;;
10491;SDS011;5293;51.464;-2.566;2022-12-24T00:18:15;18.07;;;4.47;;
10491;SDS011;5293;51.464;-2.566;2022-12-24T00:20:44;18.83;;;3.80;;
10491;SDS011;5293;51.464;-2.566;2022-12-24T00:23:13;15.67;;;3.63;;
10491;SDS011;5293;51.464;-2.566;2022-12-24T00:25:39;14.20;;;4.63;;
10491;SDS011;5293;51.464;-2.566;2022-12-24T00:28:05;15.83;;;3.50;;
10491;SDS011;5293;51.464;-2.566;2022-12-24T00:30:30;13.63;;;3.57;;
10491;SDS011;5293;51.464;-2.566;2022-12-24T00:32:56;12.23;;;3.17;;
10491;SDS011;5293;51.464;-2.566;2022-12-24T00:35:22;19.10;;;3.63;;
10491;SDS011;5293;51.464;-2.566;2022-12-24T00:37:48;13.17;;;3.63;;
10491;SDS011;5293;51.464;-2.566;2022-12-24T00:40:14;15.90;;;4.03;;
10491;SDS011;5293;51.464;-2.566;2022-12-24T00:42:41;19.63;;;3.37;;
10491;SDS011;5293;51.464;-2.566;2022-12-24T00:45:07;11.90;;;3.47;;
10491;SDS011;5293;51.464;-2.566;2022-12-24T00:47:33;13.70;;;3.20;;
10491;SDS011;5293;51.464;-2.566;2022-12-24T00:49:59;17.80;;;2.97;;
10491;SDS011;5293;51.464;-2.566;2022-12-24T00:52:24;22.40;;;4.10;;
10491;SDS011;5293;51.464;-2.566;2022-12-24T00:54:50;14.23;;;3.40;;
10491;SDS011;5293;51.464;-2.566;2022-12-24T00:57:16;18.43;;;3.40;;
10491;SDS011;5293;51.464;-2.566;2022-12-24T00:59:41;20.13;;;3.60;;
10491;SDS011;5293;51.464;-2.566;2022-12-24T01:02:07;16.40;;;3.43;;
10491;SDS011;5293;51.464;-2.566;2022-12-24T01:04:33;20.50;;;3.90;;
10491;SDS011;5293;51.464;-2.566;2022-12-24T01:07:17;16.53;;;3.37;;
10491;SDS011;5293;51.464;-2.566;2022-12-24T01:09:43;12.67;;;3.30;;
10491;SDS011;5293;51.464;-2.566;2022-12-24T01:12:08;21.47;;;3.60;;
10491;SDS011;5293;51.464;-2.566;2022-12-24T01:14:35;21.23;;;3.50;;
10491;SDS011;5293;51.464;-2.566;2022-12-24T01:17:02;24.57;;;4.47;;
10491;SDS011;5293;51.464;-2.566;2022-12-24T01:19:28;19.27;;;4.90;;
10491;SDS011;5293;51.464;-2.566;2022-12-24T01:21:54;17.40;;;4.13;;
10491;SDS011;5293;51.464;-2.566;2022-12-24T01:24:19;21.03;;;3.73;;
10491;SDS011;5293;51.464;-2.566;2022-12-24T01:26:46;13.53;;;3.00;;
10491;SDS011;5293;51.464;-2.566;2022-12-24T01:29:11;18.40;;;3.73;;
10491;SDS011;5293;51.464;-2.566;2022-12-24T01:31:37;14.13;;;3.20;;
10491;SDS011;5293;51.464;-2.566;2022-12-24T01:34:03;18.33;;;3.20;;
10491;SDS011;5293;51.464;-2.566;2022-12-24T01:36:29;15.03;;;3.67;;
10491;SDS011;5293;51.464;-2.566;2022-12-24T01:38:54;18.93;;;3.17;;
10491;SDS011;5293;51.464;-2.566;2022-12-24T01:41:21;19.70;;;3.50;;
10491;SDS011;5293;51.464;-2.566;2022-12-24T01:44:40;21.87;;;4.27;;
10491;SDS011;5293;51.464;-2.566;2022-12-24T01:49:50;18.00;;;4.27;;
10491;SDS011;5293;51.464;-2.566;2022-12-24T01:52:21;15.40;;;3.47;;
10491;SDS011;5293;51.464;-2.566;2022-12-24T01:54:54;15.50;;;3.10;;
10491;SDS011;5293;51.464;-2.566;2022-12-24T01:58:07;11.23;;;3.10;;
10491;SDS011;5293;51.464;-2.566;2022-12-24T02:00:17;22.20;;;3.90;;
10491;SDS011;5293;51.464;-2.566;2022-12-24T02:02:43;18.17;;;4.27;;
10491;SDS011;5293;51.464;-2.566;2022-12-24T02:05:31;18.37;;;4.03;;
10491;SDS011;5293;51.464;-2.566;2022-12-24T02:08:03;15.37;;;2.90;;
10491;SDS011;5293;51.464;-2.566;2022-12-24T02:10:30;21.13;;;3.40;;
10491;SDS011;5293;51.464;-2.566;2022-12-24T02:12:55;16.57;;;3.30;;
10491;SDS011;5293;51.464;-2.566;2022-12-24T02:15:23;22.33;;;3.73;;
10491;SDS011;5293;51.464;-2.566;2022-12-24T02:26:12;15.03;;;3.53;;
10491;SDS011;5293;51.464;-2.566;2022-12-24T02:31:42;11.73;;;3.00;;
10491;SDS011;5293;51.464;-2.566;2022-12-24T02:34:18;15.03;;;3.13;;
10491;SDS011;5293;51.464;-2.566;2022-12-24T02:37:14;13.87;;;2.80;;
10491;SDS011;5293;51.464;-2.566;2022-12-24T02:40:30;17.23;;;3.20;;
10491;SDS011;5293;51.464;-2.566;2022-12-24T02:42:38;14.90;;;3.90;;
10491;SDS011;5293;51.464;-2.566;2022-12-24T02:45:07;12.90;;;2.90;;
10491;SDS011;5293;51.464;-2.566;2022-12-24T02:47:45;23.57;;;4.13;;
10491;SDS011;5293;51.464;-2.566;2022-12-24T02:50:14;18.23;;;2.87;;
10491;SDS011;5293;51.464;-2.566;2022-12-24T02:52:41;14.90;;;2.73;;
10491;SDS011;5293;51.464;-2.566;2022-12-24T02:55:22;15.90;;;3.63;;
10491;SDS011;5293;51.464;-2.566;2022-12-24T03:01:00;21.07;;;3.10;;
10491;SDS011;5293;51.464;-2.566;2022-12-24T03:05:52;16.43;;;3.47;;
10491;SDS011;5293;51.464;-2.566;2022-12-24T03:08:49;18.50;;;3.47;;
10491;SDS011;5293;51.464;-2.566;2022-12-24T03:11:28;17.20;;;3.23;;
10491;SDS011;5293;51.464;-2.566;2022-12-24T03:13:53;15.10;;;2.67;;
10491;SDS011;5293;51.464;-2.566;2022-12-24T03:16:23;15.27;;;4.03;;
10491;SDS011;5293;51.464;-2.566;2022-12-24T03:18:52;15.17;;;2.93;;
10491;SDS011;5293;51.464;-2.566;2022-12-24T03:21:21;16.87;;;4.07;;
10491;SDS011;5293;51.464;-2.566;2022-12-24T03:23:51;22.03;;;3.57;;
10491;SDS011;5293;51.464;-2.566;2022-12-24T03:26:18;26.53;;;3.33;;
10491;SDS011;5293;51.464;-2.566;2022-12-24T03:28:45;18.40;;;3.43;;
10491;SDS011;5293;51.464;-2.566;2022-12-24T03:31:12;14.07;;;3.33;;
10491;SDS011;5293;51.464;-2.566;2022-12-24T03:33:38;20.37;;;3.53;;
10491;SDS011;5293;51.464;-2.566;2022-12-24T03:36:04;14.60;;;2.67;;
10491;SDS011;5293;51.464;-2.566;2022-12-24T03:38:31;16.37;;;3.73;;
10491;SDS011;5293;51.464;-2.566;2022-12-24T03:40:57;15.77;;;3.33;;
10491;SDS011;5293;51.464;-2.566;2022-12-24T03:43:23;18.23;;;3.57;;
10491;SDS011;5293;51.464;-2.566;2022-12-24T03:45:49;15.10;;;3.67;;
10491;SDS011;5293;51.464;-2.566;2022-12-24T03:48:15;17.60;;;3.30;;
10491;SDS011;5293;51.464;-2.566;2022-12-24T03:50:41;21.97;;;3.83;;
10491;SDS011;5293;51.464;-2.566;2022-12-24T03:53:06;15.33;;;3.20;;
10491;SDS011;5293;51.464;-2.566;2022-12-24T03:55:32;19.83;;;3.63;;
10491;SDS011;5293;51.464;-2.566;2022-12-24T03:57:57;23.47;;;4.03;;
10491;SDS011;5293;51.464;-2.566;2022-12-24T04:00:23;14.87;;;3.17;;
10491;SDS011;5293;51.464;-2.566;2022-12-24T04:02:49;13.57;;;3.00;;
10491;SDS011;5293;51.464;-2.566;2022-12-24T04:05:16;19.43;;;3.37;;
10491;SDS011;5293;51.464;-2.566;2022-12-24T04:07:43;17.30;;;3.50;;
10491;SDS011;5293;51.464;-2.566;2022-12-24T04:10:09;21.37;;;4.03;;
10491;SDS011;5293;51.464;-2.566;2022-12-24T04:12:35;18.13;;;4.13;;
10491;SDS011;5293;51.464;-2.566;2022-12-24T04:15:01;21.07;;;3.80;;
10491;SDS011;5293;51.464;-2.566;2022-12-24T04:17:28;20.70;;;3.40;;
10491;SDS011;5293;51.464;-2.566;2022-12-24T04:19:54;19.63;;;3.50;;
10491;SDS011;5293;51.464;-2.566;2022-12-24T04:22:19;16.70;;;3.70;;
10491;SDS011;5293;51.464;-2.566;2022-12-24T04:24:45;14.23;;;3.27;;
10491;SDS011;5293;51.464;-2.566;2022-12-24T04:27:12;20.13;;;4.43;;
10491;SDS011;5293;51.464;-2.566;2022-12-24T04:29:38;15.00;;;3.97;;
10491;SDS011;5293;51.464;-2.566;2022-12-24T04:32:04;21.17;;;4.20;;
10491;SDS011;5293;51.464;-2.566;2022-12-24T04:34:29;20.33;;;3.73;;
10491;SDS011;5293;51.464;-2.566;2022-12-24T04:36:55;20.03;;;3.50;;
10491;SDS011;5293;51.464;-2.566;2022-12-24T04:39:21;20.70;;;3.63;;
10491;SDS011;5293;51.464;-2.566;2022-12-24T04:41:46;14.27;;;3.30;;
10491;SDS011;5293;51.464;-2.566;2022-12-24T04:44:12;17.70;;;3.40;;
10491;SDS011;5293;51.464;-2.566;2022-12-24T04:46:38;18.70;;;3.40;;
10491;SDS011;5293;51.464;-2.566;2022-12-24T04:49:05;18.50;;;3.57;;
10491;SDS011;5293;51.464;-2.566;2022-12-24T04:51:30;22.63;;;4.13;;
10491;SDS011;5293;51.464;-2.566;2022-12-24T04:53:56;14.90;;;4.27;;
10491;SDS011;5293;51.464;-2.566;2022-12-24T04:56:23;10.67;;;3.30;;
10491;SDS011;5293;51.464;-2.566;2022-12-24T04:58:51;14.37;;;3.10;;
10491;SDS011;5293;51.464;-2.566;2022-12-24T05:01:18;24.37;;;3.63;;
10491;SDS011;5293;51.464;-2.566;2022-12-24T05:03:46;21.17;;;3.67;;
10491;SDS011;5293;51.464;-2.566;2022-12-24T05:06:13;18.63;;;3.90;;
10491;SDS011;5293;51.464;-2.566;2022-12-24T05:08:41;14.23;;;3.30;;
10491;SDS011;5293;51.464;-2.566;2022-12-24T05:11:07;16.20;;;3.70;;
10491;SDS011;5293;51.464;-2.566;2022-12-24T05:13:34;18.90;;;3.30;;
10491;SDS011;5293;51.464;-2.566;2022-12-24T05:15:59;14.13;;;3.43;;
10491;SDS011;5293;51.464;-2.566;2022-12-24T05:18:25;15.57;;;3.90;;
10491;SDS011;5293;51.464;-2.566;2022-12-24T05:20:51;16.30;;;2.97;;
10491;SDS011;5293;51.464;-2.566;2022-12-24T05:26:01;12.57;;;2.60;;
10491;SDS011;5293;51.464;-2.566;2022-12-24T05:28:46;12.40;;;3.43;;
10491;SDS011;5293;51.464;-2.566;2022-12-24T05:31:15;26.70;;;3.93;;
10491;SDS011;5293;51.464;-2.566;2022-12-24T05:33:41;16.87;;;4.13;;
10491;SDS011;5293;51.464;-2.566;2022-12-24T05:36:07;19.07;;;3.77;;
10491;SDS011;5293;51.464;-2.566;2022-12-24T05:38:33;15.40;;;3.30;;
10491;SDS011;5293;51.464;-2.566;2022-12-24T05:40:59;22.40;;;3.57;;
10491;SDS011;5293;51.464;-2.566;2022-12-24T05:43:24;20.13;;;3.37;;
10491;SDS011;5293;51.464;-2.566;2022-12-24T05:45:50;18.97;;;2.90;;
10491;SDS011;5293;51.464;-2.566;2022-12-24T05:48:16;15.13;;;3.50;;
10491;SDS011;5293;51.464;-2.566;2022-12-24T05:50:41;13.00;;;2.97;;
10491;SDS011;5293;51.464;-2.566;2022-12-24T05:53:07;26.90;;;3.37;;
10491;SDS011;5293;51.464;-2.566;2022-12-24T05:55:33;8.50;;;2.50;;
10491;SDS011;5293;51.464;-2.566;2022-12-24T05:57:59;19.43;;;3.63;;
10491;SDS011;5293;51.464;-2.566;2022-12-24T06:00:24;15.40;;;3.20;;
10491;SDS011;5293;51.464;-2.566;2022-12-24T06:02:50;14.20;;;3.40;;
10491;SDS011;5293;51.464;-2.566;2022-12-24T06:05:16;15.73;;;2.90;;
10491;SDS011;5293;51.464;-2.566;2022-12-24T06:07:42;12.43;;;2.77;;
10491;SDS011;5293;51.464;-2.566;2022-12-24T06:10:08;15.97;;;3.10;;
10491;SDS011;5293;51.464;-2.566;2022-12-24T06:12:34;19.57;;;3.50;;
10491;SDS011;5293;51.464;-2.566;2022-12-24T06:14:59;16.77;;;3.00;;
10491;SDS011;5293;51.464;-2.566;2022-12-24T06:17:25;11.07;;;3.23;;
10491;SDS011;5293;51.464;-2.566;2022-12-24T06:19:51;16.27;;;3.03;;
10491;SDS011;5293;51.464;-2.566;2022-12-24T06:22:17;17.20;;;3.13;;
10491;SDS011;5293;51.464;-2.566;2022-12-24T06:24:42;15.40;;;2.90;;
10491;SDS011;5293;51.464;-2.566;2022-12-24T06:27:08;13.47;;;3.97;;
10491;SDS011;5293;51.464;-2.566;2022-12-24T06:29:34;19.53;;;3.83;;
10491;SDS011;5293;51.464;-2.566;2022-12-24T06:31:59;11.90;;;3.43;;
10491;SDS011;5293;51.464;-2.566;2022-12-24T06:34:25;13.20;;;3.00;;
10491;SDS011;5293;51.464;-2.566;2022-12-24T06:36:51;17.03;;;3.63;;
10491;SDS011;5293;51.464;-2.566;2022-12-24T06:39:16;17.93;;;3.20;;
10491;SDS011;5293;51.464;-2.566;2022-12-24T06:41:42;11.73;;;2.47;;
10491;SDS011;5293;51.464;-2.566;2022-12-24T06:44:08;17.10;;;3.53;;
10491;SDS011;5293;51.464;-2.566;2022-12-24T06:46:34;10.80;;;3.23;;
10491;SDS011;5293;51.464;-2.566;2022-12-24T06:48:59;15.10;;;3.43;;
10491;SDS011;5293;51.464;-2.566;2022-12-24T06:51:25;16.10;;;3.03;;
10491;SDS011;5293;51.464;-2.566;2022-12-24T06:53:51;11.03;;;2.77;;
10491;SDS011;5293;51.464;-2.566;2022-12-24T06:56:17;14.47;;;3.80;;
10491;SDS011;5293;51.464;-2.566;2022-12-24T06:58:46;15.07;;;3.13;;
10491;SDS011;5293;51.464;-2.566;2022-12-24T07:01:13;10.80;;;2.73;;
10491;SDS011;5293;51.464;-2.566;2022-12-24T07:03:40;18.97;;;3.83;;
10491;SDS011;5293;51.464;-2.566;2022-12-24T07:06:06;9.03;;;2.50;;
10491;SDS011;5293;51.464;-2.566;2022-12-24T07:08:47;14.40;;;2.90;;
10491;SDS011;5293;51.464;-2.566;2022-12-24T07:11:13;19.23;;;3.63;;
10491;SDS011;5293;51.464;-2.566;2022-12-24T07:13:39;14.13;;;2.83;;
10491;SDS011;5293;51.464;-2.566;2022-12-24T07:16:05;11.37;;;3.13;;
10491;SDS011;5293;51.464;-2.566;2022-12-24T07:18:30;17.77;;;3.67;;
10491;SDS011;5293;51.464;-2.566;2022-12-24T07:20:57;11.37;;;3.37;;
10491;SDS011;5293;51.464;-2.566;2022-12-24T07:23:23;12.77;;;3.13;;
10491;SDS011;5293;51.464;-2.566;2022-12-24T07:25:49;10.43;;;2.63;;
10491;SDS011;5293;51.464;-2.566;2022-12-24T07:28:14;13.90;;;3.43;;
10491;SDS011;5293;51.464;-2.566;2022-12-24T07:30:40;12.73;;;3.23;;
10491;SDS011;5293;51.464;-2.566;2022-12-24T07:33:05;14.17;;;3.10;;
10491;SDS011;5293;51.464;-2.566;2022-12-24T07:35:32;14.07;;;3.17;;
10491;SDS011;5293;51.464;-2.566;2022-12-24T07:37:58;9.27;;;2.83;;
10491;SDS011;5293;51.464;-2.566;2022-12-24T07:40:24;13.67;;;2.87;;
10491;SDS011;5293;51.464;-2.566;2022-12-24T07:42:49;16.77;;;3.90;;
10491;SDS011;5293;51.464;-2.566;2022-12-24T07:45:15;6.33;;;2.80;;
10491;SDS011;5293;51.464;-2.566;2022-12-24T07:47:41;18.90;;;3.27;;
10491;SDS011;5293;51.464;-2.566;2022-12-24T07:50:06;16.63;;;3.57;;
10491;SDS011;5293;51.464;-2.566;2022-12-24T07:52:33;19.93;;;3.40;;
10491;SDS011;5293;51.464;-2.566;2022-12-24T07:54:58;17.50;;;3.07;;
10491;SDS011;5293;51.464;-2.566;2022-12-24T07:57:24;13.70;;;3.40;;
10491;SDS011;5293;51.464;-2.566;2022-12-24T07:59:49;19.03;;;3.37;;
10491;SDS011;5293;51.464;-2.566;2022-12-24T08:02:15;15.77;;;3.33;;
10491;SDS011;5293;51.464;-2.566;2022-12-24T08:04:41;7.50;;;2.60;;
10491;SDS011;5293;51.464;-2.566;2022-12-24T08:07:07;11.93;;;3.10;;
10491;SDS011;5293;51.464;-2.566;2022-12-24T08:09:33;13.00;;;3.20;;
10491;SDS011;5293;51.464;-2.566;2022-12-24T08:11:59;8.37;;;2.80;;
10491;SDS011;5293;51.464;-2.566;2022-12-24T08:14:26;18.33;;;3.90;;
10491;SDS011;5293;51.464;-2.566;2022-12-24T08:16:53;15.07;;;2.93;;
10491;SDS011;5293;51.464;-2.566;2022-12-24T08:19:19;11.00;;;3.63;;
10491;SDS011;5293;51.464;-2.566;2022-12-24T08:21:44;13.10;;;2.97;;
10491;SDS011;5293;51.464;-2.566;2022-12-24T08:24:10;12.13;;;2.83;;
10491;SDS011;5293;51.464;-2.566;2022-12-24T08:26:36;14.53;;;3.80;;
10491;SDS011;5293;51.464;-2.566;2022-12-24T08:29:02;14.63;;;3.30;;
10491;SDS011;5293;51.464;-2.566;2022-12-24T08:31:28;14.40;;;3.73;;
10491;SDS011;5293;51.464;-2.566;2022-12-24T08:33:54;20.40;;;4.03;;
10491;SDS011;5293;51.464;-2.566;2022-12-24T08:36:20;17.03;;;3.93;;
10491;SDS011;5293;51.464;-2.566;2022-12-24T08:38:46;13.13;;;2.67;;
10491;SDS011;5293;51.464;-2.566;2022-12-24T08:41:11;18.97;;;3.23;;
10491;SDS011;5293;51.464;-2.566;2022-12-24T08:43:37;16.63;;;3.80;;
10491;SDS011;5293;51.464;-2.566;2022-12-24T08:46:03;13.67;;;3.33;;
10491;SDS011;5293;51.464;-2.566;2022-12-24T08:48:30;11.27;;;3.10;;
10491;SDS011;5293;51.464;-2.566;2022-12-24T08:50:56;16.20;;;3.70;;
10491;SDS011;5293;51.464;-2.566;2022-12-24T08:53:22;20.47;;;3.50;;
10491;SDS011;5293;51.464;-2.566;2022-12-24T08:55:48;13.93;;;3.00;;
10491;SDS011;5293;51.464;-2.566;2022-12-24T08:58:13;22.57;;;4.43;;
10491;SDS011;5293;51.464;-2.566;2022-12-24T09:00:39;14.30;;;3.00;;
10491;SDS011;5293;51.464;-2.566;2022-12-24T09:03:05;12.93;;;3.27;;
10491;SDS011;5293;51.464;-2.566;2022-12-24T09:05:30;5.57;;;2.60;;
10491;SDS011;5293;51.464;-2.566;2022-12-24T09:07:56;17.97;;;3.50;;
10491;SDS011;5293;51.464;-2.566;2022-12-24T09:10:22;11.37;;;3.17;;
10491;SDS011;5293;51.464;-2.566;2022-12-24T09:12:48;19.03;;;3.87;;
10491;SDS011;5293;51.464;-2.566;2022-12-24T09:15:15;17.97;;;4.27;;
10491;SDS011;5293;51.464;-2.566;2022-12-24T09:17:41;18.07;;;4.10;;
10491;SDS011;5293;51.464;-2.566;2022-12-24T09:20:08;14.43;;;3.77;;
10491;SDS011;5293;51.464;-2.566;2022-12-24T09:22:34;12.10;;;3.70;;
10491;SDS011;5293;51.464;-2.566;2022-12-24T09:25:02;14.30;;;3.47;;
10491;SDS011;5293;51.464;-2.566;2022-12-24T09:27:30;19.07;;;4.23;;
10491;SDS011;5293;51.464;-2.566;2022-12-24T09:29:56;16.20;;;3.70;;
10491;SDS011;5293;51.464;-2.566;2022-12-24T09:32:21;16.13;;;3.37;;
10491;SDS011;5293;51.464;-2.566;2022-12-24T09:34:47;18.43;;;4.27;;
10491;SDS011;5293;51.464;-2.566;2022-12-24T09:37:13;11.93;;;3.00;;
10491;SDS011;5293;51.464;-2.566;2022-12-24T09:39:38;12.53;;;3.60;;
10491;SDS011;5293;51.464;-2.566;2022-12-24T09:47:42;20.13;;;3.67;;
10491;SDS011;5293;51.464;-2.566;2022-12-24T09:50:21;16.53;;;3.40;;
10491;SDS011;5293;51.464;-2.566;2022-12-24T09:52:53;15.67;;;3.80;;
10491;SDS011;5293;51.464;-2.566;2022-12-24T09:57:57;16.80;;;3.17;;
10491;SDS011;5293;51.464;-2.566;2022-12-24T10:00:27;17.80;;;4.00;;
10491;SDS011;5293;51.464;-2.566;2022-12-24T10:02:55;19.70;;;4.20;;
10491;SDS011;5293;51.464;-2.566;2022-12-24T10:05:36;12.60;;;3.23;;
10491;SDS011;5293;51.464;-2.566;2022-12-24T10:10:48;14.30;;;3.77;;
10491;SDS011;5293;51.464;-2.566;2022-12-24T10:19:02;20.27;;;4.63;;
10491;SDS011;5293;51.464;-2.566;2022-12-24T10:27:45;21.53;;;3.80;;
10491;SDS011;5293;51.464;-2.566;2022-12-24T10:30:13;17.20;;;4.50;;
10491;SDS011;5293;51.464;-2.566;2022-12-24T10:32:44;14.67;;;3.97;;
10491;SDS011;5293;51.464;-2.566;2022-12-24T10:37:44;11.83;;;3.77;;
10491;SDS011;5293;51.464;-2.566;2022-12-24T10:40:13;13.83;;;4.80;;
10491;SDS011;5293;51.464;-2.566;2022-12-24T10:42:48;17.30;;;5.03;;
10491;SDS011;5293;51.464;-2.566;2022-12-24T10:45:19;16.87;;;5.10;;
10491;SDS011;5293;51.464;-2.566;2022-12-24T10:47:48;17.30;;;4.77;;
10491;SDS011;5293;51.464;-2.566;2022-12-24T10:52:52;20.07;;;5.07;;
10491;SDS011;5293;51.464;-2.566;2022-12-24T10:55:24;14.33;;;5.20;;
10491;SDS011;5293;51.464;-2.566;2022-12-24T10:58:01;19.63;;;5.77;;
10491;SDS011;5293;51.464;-2.566;2022-12-24T11:00:31;15.57;;;5.27;;
10491;SDS011;5293;51.464;-2.566;2022-12-24T11:06:01;19.00;;;4.67;;
10491;SDS011;5293;51.464;-2.566;2022-12-24T11:08:33;13.67;;;4.50;;
10491;SDS011;5293;51.464;-2.566;2022-12-24T11:11:02;19.30;;;4.70;;
10491;SDS011;5293;51.464;-2.566;2022-12-24T11:13:52;26.63;;;4.57;;
10491;SDS011;5293;51.464;-2.566;2022-12-24T11:16:29;18.90;;;4.73;;
10491;SDS011;5293;51.464;-2.566;2022-12-24T11:18:58;21.43;;;4.90;;
10491;SDS011;5293;51.464;-2.566;2022-12-24T11:21:27;15.13;;;4.20;;
10491;SDS011;5293;51.464;-2.566;2022-12-24T11:26:36;14.83;;;3.87;;
10491;SDS011;5293;51.464;-2.566;2022-12-24T11:29:23;20.10;;;5.07;;
10491;SDS011;5293;51.464;-2.566;2022-12-24T11:31:51;20.23;;;5.33;;
10491;SDS011;5293;51.464;-2.566;2022-12-24T11:34:20;22.67;;;4.47;;
10491;SDS011;5293;51.464;-2.566;2022-12-24T11:37:17;17.00;;;5.07;;
10491;SDS011;5293;51.464;-2.566;2022-12-24T11:39:42;21.60;;;5.00;;
10491;SDS011;5293;51.464;-2.566;2022-12-24T11:45:16;23.40;;;4.87;;
10491;SDS011;5293;51.464;-2.566;2022-12-24T11:47:48;22.93;;;4.63;;
10491;SDS011;5293;51.464;-2.566;2022-12-24T11:55:49;26.67;;;4.87;;
10491;SDS011;5293;51.464;-2.566;2022-12-24T12:03:50;19.87;;;4.63;;
10491;SDS011;5293;51.464;-2.566;2022-12-24T12:06:49;19.70;;;4.73;;
10491;SDS011;5293;51.464;-2.566;2022-12-24T12:09:31;18.10;;;4.60;;
10491;SDS011;5293;51.464;-2.566;2022-12-24T12:12:05;26.67;;;5.43;;
10491;SDS011;5293;51.464;-2.566;2022-12-24T12:14:43;28.30;;;4.90;;
10491;SDS011;5293;51.464;-2.566;2022-12-24T12:20:04;21.83;;;4.77;;
10491;SDS011;5293;51.464;-2.566;2022-12-24T12:22:45;23.03;;;4.37;;
10491;SDS011;5293;51.464;-2.566;2022-12-24T12:27:54;25.73;;;4.73;;
10491;SDS011;5293;51.464;-2.566;2022-12-24T12:30:22;32.63;;;10.17;;
10491;SDS011;5293;51.464;-2.566;2022-12-24T12:35:33;19.83;;;4.60;;
10491;SDS011;5293;51.464;-2.566;2022-12-24T12:38:21;20.20;;;4.60;;
10491;SDS011;5293;51.464;-2.566;2022-12-24T12:43:56;22.77;;;4.03;;
10491;SDS011;5293;51.464;-2.566;2022-12-24T12:58:11;19.23;;;4.60;;
10491;SDS011;5293;51.464;-2.566;2022-12-24T13:00:45;23.03;;;4.83;;
10491;SDS011;5293;51.464;-2.566;2022-12-24T13:08:49;30.37;;;5.80;;
10491;SDS011;5293;51.464;-2.566;2022-12-24T13:11:25;30.63;;;5.37;;
10491;SDS011;5293;51.464;-2.566;2022-12-24T13:14:10;22.60;;;4.80;;
10491;SDS011;5293;51.464;-2.566;2022-12-24T13:20:16;23.37;;;5.27;;
10491;SDS011;5293;51.464;-2.566;2022-12-24T13:22:56;19.43;;;4.97;;
10491;SDS011;5293;51.464;-2.566;2022-12-24T13:25:52;21.47;;;5.73;;
10491;SDS011;5293;51.464;-2.566;2022-12-24T13:30:49;24.87;;;3.83;;
10491;SDS011;5293;51.464;-2.566;2022-12-24T13:36:07;24.53;;;4.47;;
10491;SDS011;5293;51.464;-2.566;2022-12-24T13:38:42;17.07;;;4.17;;
10491;SDS011;5293;51.464;-2.566;2022-12-24T13:55:40;21.47;;;3.90;;
10491;SDS011;5293;51.464;-2.566;2022-12-24T13:57:43;16.80;;;4.63;;
10491;SDS011;5293;51.464;-2.566;2022-12-24T14:05:37;24.07;;;4.50;;
10491;SDS011;5293;51.464;-2.566;2022-12-24T14:08:09;17.63;;;4.40;;
10491;SDS011;5293;51.464;-2.566;2022-12-24T14:11:22;24.73;;;5.03;;
10491;SDS011;5293;51.464;-2.566;2022-12-24T14:21:44;25.40;;;5.00;;
10491;SDS011;5293;51.464;-2.566;2022-12-24T14:24:20;31.25;;;6.53;;
10491;SDS011;5293;51.464;-2.566;2022-12-24T14:29:48;26.73;;;4.93;;
10491;SDS011;5293;51.464;-2.566;2022-12-24T14:32:21;29.95;;;5.90;;
10491;SDS011;5293;51.464;-2.566;2022-12-24T14:35:03;20.60;;;5.03;;
10491;SDS011;5293;51.464;-2.566;2022-12-24T14:37:34;22.17;;;4.40;;
10491;SDS011;5293;51.464;-2.566;2022-12-24T14:39:59;20.40;;;4.10;;
10491;SDS011;5293;51.464;-2.566;2022-12-24T14:42:38;20.47;;;4.43;;
10491;SDS011;5293;51.464;-2.566;2022-12-24T14:56:46;18.80;;;3.93;;
10491;SDS011;5293;51.464;-2.566;2022-12-24T14:59:15;27.53;;;5.33;;
10491;SDS011;5293;51.464;-2.566;2022-12-24T15:01:42;19.50;;;4.47;;
10491;SDS011;5293;51.464;-2.566;2022-12-24T15:06:38;24.67;;;4.73;;
10491;SDS011;5293;51.464;-2.566;2022-12-24T15:11:50;20.27;;;4.30;;
10491;SDS011;5293;51.464;-2.566;2022-12-24T15:14:19;21.07;;;5.00;;
10491;SDS011;5293;51.464;-2.566;2022-12-24T15:19:43;21.33;;;4.63;;
10491;SDS011;5293;51.464;-2.566;2022-12-24T15:22:21;18.93;;;4.57;;
10491;SDS011;5293;51.464;-2.566;2022-12-24T15:24:48;31.20;;;5.83;;
10491;SDS011;5293;51.464;-2.566;2022-12-24T15:27:19;26.50;;;4.00;;
10491;SDS011;5293;51.464;-2.566;2022-12-24T15:29:48;19.77;;;4.67;;
10491;SDS011;5293;51.464;-2.566;2022-12-24T15:32:16;26.13;;;5.13;;
10491;SDS011;5293;51.464;-2.566;2022-12-24T15:34:45;27.90;;;4.67;;
10491;SDS011;5293;51.464;-2.566;2022-12-24T15:37:20;22.40;;;4.87;;
10491;SDS011;5293;51.464;-2.566;2022-12-24T15:39:52;16.77;;;4.20;;
10491;SDS011;5293;51.464;-2.566;2022-12-24T15:42:19;24.43;;;4.57;;
10491;SDS011;5293;51.464;-2.566;2022-12-24T15:47:27;23.23;;;5.27;;
10491;SDS011;5293;51.464;-2.566;2022-12-24T15:50:12;35.00;;;5.00;;
10491;SDS011;5293;51.464;-2.566;2022-12-24T15:53:00;25.23;;;4.60;;
10491;SDS011;5293;51.464;-2.566;2022-12-24T15:55:37;22.23;;;4.40;;
10491;SDS011;5293;51.464;-2.566;2022-12-24T16:03:34;21.73;;;4.57;;
10491;SDS011;5293;51.464;-2.566;2022-12-24T16:06:02;19.53;;;4.87;;
10491;SDS011;5293;51.464;-2.566;2022-12-24T16:08:39;24.87;;;5.33;;
10491;SDS011;5293;51.464;-2.566;2022-12-24T16:13:41;24.13;;;5.03;;
10491;SDS011;5293;51.464;-2.566;2022-12-24T16:16:16;21.93;;;4.90;;
10491;SDS011;5293;51.464;-2.566;2022-12-24T16:18:54;22.00;;;4.23;;
10491;SDS011;5293;51.464;-2.566;2022-12-24T16:21:22;24.00;;;5.00;;
10491;SDS011;5293;51.464;-2.566;2022-12-24T16:24:12;20.70;;;4.37;;
10491;SDS011;5293;51.464;-2.566;2022-12-24T16:26:41;21.37;;;4.17;;
10491;SDS011;5293;51.464;-2.566;2022-12-24T16:29:07;21.87;;;4.67;;
10491;SDS011;5293;51.464;-2.566;2022-12-24T16:31:44;23.10;;;5.63;;
10491;SDS011;5293;51.464;-2.566;2022-12-24T16:34:13;21.77;;;4.67;;
10491;SDS011;5293;51.464;-2.566;2022-12-24T16:36:41;24.13;;;4.83;;
10491;SDS011;5293;51.464;-2.566;2022-12-24T16:39:11;21.37;;;5.10;;
10491;SDS011;5293;51.464;-2.566;2022-12-24T16:41:47;22.90;;;4.93;;
10491;SDS011;5293;51.464;-2.566;2022-12-24T16:44:32;22.63;;;4.93;;
10491;SDS011;5293;51.464;-2.566;2022-12-24T16:46:58;19.20;;;4.43;;
10491;SDS011;5293;51.464;-2.566;2022-12-24T16:49:24;14.63;;;3.97;;
10491;SDS011;5293;51.464;-2.566;2022-12-24T16:51:51;22.77;;;4.40;;
10491;SDS011;5293;51.464;-2.566;2022-12-24T16:54:16;39.87;;;5.23;;
10491;SDS011;5293;51.464;-2.566;2022-12-24T16:56:42;23.03;;;4.87;;
10491;SDS011;5293;51.464;-2.566;2022-12-24T16:59:13;25.23;;;4.67;;
10491;SDS011;5293;51.464;-2.566;2022-12-24T17:01:41;21.80;;;4.47;;
10491;SDS011;5293;51.464;-2.566;2022-12-24T17:04:07;25.07;;;5.33;;
10491;SDS011;5293;51.464;-2.566;2022-12-24T17:06:32;29.30;;;4.97;;
10491;SDS011;5293;51.464;-2.566;2022-12-24T17:08:58;24.33;;;4.93;;
10491;SDS011;5293;51.464;-2.566;2022-12-24T17:11:24;27.43;;;4.90;;
10491;SDS011;5293;51.464;-2.566;2022-12-24T17:13:49;26.93;;;6.03;;
10491;SDS011;5293;51.464;-2.566;2022-12-24T17:16:15;22.77;;;5.40;;
10491;SDS011;5293;51.464;-2.566;2022-12-24T17:18:41;30.07;;;5.03;;
10491;SDS011;5293;51.464;-2.566;2022-12-24T17:21:06;19.60;;;5.63;;
10491;SDS011;5293;51.464;-2.566;2022-12-24T17:23:34;24.63;;;5.37;;
10491;SDS011;5293;51.464;-2.566;2022-12-24T17:26:00;26.37;;;5.10;;
10491;SDS011;5293;51.464;-2.566;2022-12-24T17:28:26;22.00;;;5.17;;
10491;SDS011;5293;51.464;-2.566;2022-12-24T17:30:51;21.67;;;4.27;;
10491;SDS011;5293;51.464;-2.566;2022-12-24T17:33:17;22.03;;;5.80;;
10491;SDS011;5293;51.464;-2.566;2022-12-24T17:35:43;25.40;;;5.20;;